Lehmann Sound — V2EM3 — position and weather

sailwx.info

Track history (hours):
 
Tides and Currents Weather Stations Pressure Air Temp Water Temp Dewpoint Dewpoint Depression Visibility Wind Speed Wind Dir Waves Ship Positions

Lehmann Sound

Last reported at 2016-May-03 17:16 UTC. Time now 2016-May-03 18:11 UTC.
Position N 60°02' E 027°12'.

Length 90 m; draft 5.8 m.

Type: Cargo ship. MMSI: 305476000.

Date/timePositionNaut miles runAvg speedWind from/ knotsBaromVisibWave heightAir tempDewpointWater temp
2016-May-03 17:16N 60°02' E 027°12'811.1
2016-May-03 16:34N 60°06' E 027°25'1111.1
2016-May-03 15:33N 60°12' E 027°44'1110.5
2016-May-03 14:33N 60°10' E 028°05'1010.4
2016-May-03 13:33N 60°05' E 028°24'1010.5
2016-May-03 12:33N 60°03' E 028°44'1110.9
2016-May-03 11:33N 60°02' E 029°06'1110.8
2016-May-03 10:33N 60°01' E 029°28'11 9.9
2016-May-03 09:28N 59°58' E 029°48'910.2
2016-May-03 08:33N 59°54' E 030°05'4 4.5
2016-May-03 07:33N 59°53' E 030°14'0 0.0
2016-May-03 06:33N 59°53' E 030°14'0 0.0
2016-May-03 05:33N 59°53' E 030°14'0 0.0
2016-May-03 04:33N 59°53' E 030°14'0 0.0
2016-May-03 03:33N 59°53' E 030°14'0 0.0
2016-May-03 02:33N 59°53' E 030°14'0 0.0
2016-May-03 01:33N 59°53' E 030°14'0 0.0
2016-May-03 00:33N 59°53' E 030°14'0 0.0
2016-May-02 23:33N 59°53' E 030°14'0 0.0
2016-May-02 22:27N 59°53' E 030°14'0 0.0
2016-May-02 21:33N 59°53' E 030°14'0 0.0
2016-May-02 20:33N 59°53' E 030°14'0 0.0
2016-May-02 19:33N 59°53' E 030°14'0 0.0
2016-May-02 18:33N 59°53' E 030°14'0 0.0
2016-May-02 17:30N 59°53' E 030°14'0 0.0
2016-May-02 16:33N 59°53' E 030°14'0 0.0
2016-May-02 15:33N 59°53' E 030°14'0 0.0
2016-May-02 14:33N 59°53' E 030°14'0 0.0
2016-May-02 13:33N 59°53' E 030°14'0 0.0
2016-May-02 12:27N 59°53' E 030°14'0 0.0
2016-May-02 11:33N 59°53' E 030°14'0 0.0
2016-May-02 10:33N 59°53' E 030°14'0 0.0
2016-May-02 09:30N 59°53' E 030°14'0 0.0
2016-May-02 08:30N 59°53' E 030°14'0 0.0
2016-May-02 07:30N 59°53' E 030°14'0 0.0
2016-May-02 06:33N 59°53' E 030°14'0 0.0
2016-May-02 05:33N 59°53' E 030°14'0 0.0
2016-May-02 04:33N 59°53' E 030°14'0 0.0
2016-May-02 03:33N 59°53' E 030°14'0 0.0
2016-May-02 02:32N 59°53' E 030°14'0 0.0
2016-May-02 01:32N 59°53' E 030°14'0 0.0
2016-May-02 00:32N 59°53' E 030°14'0 0.0
2016-May-01 23:32N 59°53' E 030°14'0 0.0
2016-May-01 22:32N 59°53' E 030°14'0 0.0
2016-May-01 21:32N 59°53' E 030°14'0 0.0
2016-May-01 20:32N 59°53' E 030°14'0 0.0
2016-May-01 19:32N 59°53' E 030°14'0 0.0
2016-May-01 18:29N 59°53' E 030°14'0 0.0
2016-May-01 17:26N 59°53' E 030°14'0 0.0
2016-May-01 16:32N 59°53' E 030°14'0 0.0
2016-May-01 15:33N 59°53' E 030°14'5 5.4
2016-May-01 14:33N 59°55' E 030°03'1110.9
2016-May-01 13:33N 59°59' E 029°43'31 9.6
2016-May-01 10:16N 60°02' E 028°41'811.3
2016-May-01 09:33N 60°03' E 028°25'1111.2
2016-May-01 08:33N 60°09' E 028°05'1111.1
2016-May-01 07:31N 60°10' E 027°42'1111.6
2016-May-01 06:33N 60°04' E 027°23'1211.6
2016-May-01 05:33N 59°58' E 027°03'1111.5
2016-May-01 04:33N 59°59' E 026°40'8311.4
2016-Apr-30 21:17N 59°36' E 024°01'811.4
2016-Apr-30 20:33N 59°32' E 023°47'1311.4
2016-Apr-30 19:28N 59°26' E 023°25'17511.0
2016-Apr-30 03:31N 58°42' E 017°57'34 5.5
2016-Apr-29 21:20N 59°16' E 017°50'3 0.1
2016-Apr-28 02:33N 59°18' E 017°56'26 5.9
2016-Apr-27 22:04N 58°53' E 017°43'610.1
2016-Apr-27 21:28N 58°47' E 017°47'167 6.2
2016-Apr-26 18:26N 59°35' E 022°60'1310.8
2016-Apr-26 17:13N 59°38' E 023°25'710.9
2016-Apr-26 16:33N 59°40' E 023°38'1110.7
2016-Apr-26 15:32N 59°43' E 023°59'8110.1
2016-Apr-26 07:30N 60°01' E 026°37'19 9.4
2016-Apr-26 05:30N 60°03' E 027°15'1010.2
2016-Apr-26 04:33N 60°08' E 027°31'1010.0
2016-Apr-26 03:33N 60°12' E 027°50'1010.3
2016-Apr-26 02:33N 60°09' E 028°10'10 9.9
2016-Apr-26 01:33N 60°04' E 028°27'1010.1
2016-Apr-26 00:33N 60°03' E 028°47'2110.3
2016-Apr-25 22:31N 60°01' E 029°29'1010.1
2016-Apr-25 21:33N 59°58' E 029°47'1110.4
2016-Apr-25 20:28N 59°54' E 030°08'3 3.3
2016-Apr-25 19:33N 59°53' E 030°14'0 0.0
2016-Apr-25 18:33N 59°53' E 030°14'0 0.0
2016-Apr-25 17:32N 59°53' E 030°14'0 0.0
2016-Apr-25 16:29N 59°53' E 030°14'0 0.0
2016-Apr-25 15:29N 59°53' E 030°14'0 0.0
2016-Apr-25 14:32N 59°53' E 030°14'0 0.0
2016-Apr-25 13:29N 59°53' E 030°14'0 0.0
2016-Apr-25 12:32N 59°53' E 030°14'0 0.0
2016-Apr-25 11:32N 59°53' E 030°14'0 0.0
2016-Apr-25 10:32N 59°53' E 030°14'0 0.0
2016-Apr-25 09:32N 59°53' E 030°14'0 0.0
2016-Apr-25 08:32N 59°53' E 030°14'0 0.0
2016-Apr-25 07:32N 59°53' E 030°14'0 0.0
2016-Apr-25 06:29N 59°53' E 030°14'0 0.0
2016-Apr-25 05:32N 59°53' E 030°14'0 0.0
2016-Apr-25 04:32N 59°53' E 030°14'0 0.0
2016-Apr-25 03:29N 59°53' E 030°14'0 0.0
2016-Apr-25 02:29N 59°53' E 030°14'0 0.0
2016-Apr-25 01:32N 59°53' E 030°14'0 0.0
2016-Apr-25 00:31N 59°53' E 030°14'0 0.0
2016-Apr-24 23:28N 59°53' E 030°14'0 0.0
2016-Apr-24 22:31N 59°53' E 030°14'0 0.0
2016-Apr-24 21:31N 59°53' E 030°14'0 0.0
2016-Apr-24 20:31N 59°53' E 030°14'0 0.0
2016-Apr-24 19:31N 59°53' E 030°14'0 0.0
2016-Apr-24 18:31N 59°53' E 030°14'0 0.0
2016-Apr-24 17:31N 59°53' E 030°14'0 0.0
2016-Apr-24 16:25N 59°53' E 030°14'0 0.0
2016-Apr-24 15:28N 59°53' E 030°14'0 0.0
2016-Apr-24 14:31N 59°53' E 030°14'0 0.0
2016-Apr-24 13:28N 59°53' E 030°14'0 0.0
2016-Apr-24 12:31N 59°53' E 030°14'0 0.0
2016-Apr-24 11:31N 59°53' E 030°14'0 0.0
2016-Apr-24 10:31N 59°53' E 030°14'0 0.0
2016-Apr-24 09:31N 59°53' E 030°14'0 0.0
2016-Apr-24 08:28N 59°53' E 030°14'0 0.0
2016-Apr-24 07:31N 59°53' E 030°14'0 0.0
2016-Apr-24 06:28N 59°53' E 030°14'0 0.0
2016-Apr-24 05:31N 59°53' E 030°14'0 0.0
2016-Apr-24 04:28N 59°53' E 030°14'0 0.0
2016-Apr-24 03:28N 59°53' E 030°14'0 0.0
2016-Apr-24 02:28N 59°53' E 030°14'0 0.0
2016-Apr-24 01:31N 59°53' E 030°14'0 0.0
2016-Apr-24 00:31N 59°53' E 030°14'0 0.0
2016-Apr-23 23:31N 59°53' E 030°14'0 0.0
2016-Apr-23 22:31N 59°53' E 030°14'0 0.0
2016-Apr-23 21:28N 59°53' E 030°14'0 0.0
2016-Apr-23 20:28N 59°53' E 030°14'0 0.0
2016-Apr-23 19:31N 59°53' E 030°14'0 0.0
2016-Apr-23 18:31N 59°53' E 030°14'0 0.0
2016-Apr-23 17:31N 59°53' E 030°14'  
Track history (hours):
 
Tides and Currents Weather Stations Pressure Air Temp Water Temp Dewpoint Dewpoint Depression Visibility Wind Speed Wind Dir Waves Ship Positions

Lehmann Sound

Last reported at 2016-May-03 17:16 UTC. Time now 2016-May-03 18:11 UTC.
Position N 60°02' E 027°12'.

Length 90 m; draft 5.8 m.

Type: Cargo ship. MMSI: 305476000.

Date/timePositionNaut miles runAvg speedWind from/ knotsBaromVisibWave heightAir tempDewpointWater temp
2016-May-03 17:16N 60°02' E 027°12'811.1
2016-May-03 16:34N 60°06' E 027°25'1111.1
2016-May-03 15:33N 60°12' E 027°44'1110.5
2016-May-03 14:33N 60°10' E 028°05'1010.4
2016-May-03 13:33N 60°05' E 028°24'1010.5
2016-May-03 12:33N 60°03' E 028°44'1110.9
2016-May-03 11:33N 60°02' E 029°06'1110.8
2016-May-03 10:33N 60°01' E 029°28'11 9.9
2016-May-03 09:28N 59°58' E 029°48'910.2
2016-May-03 08:33N 59°54' E 030°05'4 4.5
2016-May-03 07:33N 59°53' E 030°14'0 0.0
2016-May-03 06:33N 59°53' E 030°14'0 0.0
2016-May-03 05:33N 59°53' E 030°14'0 0.0
2016-May-03 04:33N 59°53' E 030°14'0 0.0
2016-May-03 03:33N 59°53' E 030°14'0 0.0
2016-May-03 02:33N 59°53' E 030°14'0 0.0
2016-May-03 01:33N 59°53' E 030°14'0 0.0
2016-May-03 00:33N 59°53' E 030°14'0 0.0
2016-May-02 23:33N 59°53' E 030°14'0 0.0
2016-May-02 22:27N 59°53' E 030°14'0 0.0
2016-May-02 21:33N 59°53' E 030°14'0 0.0
2016-May-02 20:33N 59°53' E 030°14'0 0.0
2016-May-02 19:33N 59°53' E 030°14'0 0.0
2016-May-02 18:33N 59°53' E 030°14'0 0.0
2016-May-02 17:30N 59°53' E 030°14'0 0.0
2016-May-02 16:33N 59°53' E 030°14'0 0.0
2016-May-02 15:33N 59°53' E 030°14'0 0.0
2016-May-02 14:33N 59°53' E 030°14'0 0.0
2016-May-02 13:33N 59°53' E 030°14'0 0.0
2016-May-02 12:27N 59°53' E 030°14'0 0.0
2016-May-02 11:33N 59°53' E 030°14'0 0.0
2016-May-02 10:33N 59°53' E 030°14'0 0.0
2016-May-02 09:30N 59°53' E 030°14'0 0.0
2016-May-02 08:30N 59°53' E 030°14'0 0.0
2016-May-02 07:30N 59°53' E 030°14'0 0.0
2016-May-02 06:33N 59°53' E 030°14'0 0.0
2016-May-02 05:33N 59°53' E 030°14'0 0.0
2016-May-02 04:33N 59°53' E 030°14'0 0.0
2016-May-02 03:33N 59°53' E 030°14'0 0.0
2016-May-02 02:32N 59°53' E 030°14'0 0.0
2016-May-02 01:32N 59°53' E 030°14'0 0.0
2016-May-02 00:32N 59°53' E 030°14'0 0.0
2016-May-01 23:32N 59°53' E 030°14'0 0.0
2016-May-01 22:32N 59°53' E 030°14'0 0.0
2016-May-01 21:32N 59°53' E 030°14'0 0.0
2016-May-01 20:32N 59°53' E 030°14'0 0.0
2016-May-01 19:32N 59°53' E 030°14'0 0.0
2016-May-01 18:29N 59°53' E 030°14'0 0.0
2016-May-01 17:26N 59°53' E 030°14'0 0.0
2016-May-01 16:32N 59°53' E 030°14'0 0.0
2016-May-01 15:33N 59°53' E 030°14'5 5.4
2016-May-01 14:33N 59°55' E 030°03'1110.9
2016-May-01 13:33N 59°59' E 029°43'31 9.6
2016-May-01 10:16N 60°02' E 028°41'811.3
2016-May-01 09:33N 60°03' E 028°25'1111.2
2016-May-01 08:33N 60°09' E 028°05'1111.1
2016-May-01 07:31N 60°10' E 027°42'1111.6
2016-May-01 06:33N 60°04' E 027°23'1211.6
2016-May-01 05:33N 59°58' E 027°03'1111.5
2016-May-01 04:33N 59°59' E 026°40'8311.4
2016-Apr-30 21:17N 59°36' E 024°01'811.4
2016-Apr-30 20:33N 59°32' E 023°47'1311.4
2016-Apr-30 19:28N 59°26' E 023°25'17511.0
2016-Apr-30 03:31N 58°42' E 017°57'34 5.5
2016-Apr-29 21:20N 59°16' E 017°50'3 0.1
2016-Apr-28 02:33N 59°18' E 017°56'26 5.9
2016-Apr-27 22:04N 58°53' E 017°43'610.1
2016-Apr-27 21:28N 58°47' E 017°47'167 6.2
2016-Apr-26 18:26N 59°35' E 022°60'1310.8
2016-Apr-26 17:13N 59°38' E 023°25'710.9
2016-Apr-26 16:33N 59°40' E 023°38'1110.7
2016-Apr-26 15:32N 59°43' E 023°59'8110.1
2016-Apr-26 07:30N 60°01' E 026°37'19 9.4
2016-Apr-26 05:30N 60°03' E 027°15'1010.2
2016-Apr-26 04:33N 60°08' E 027°31'1010.0
2016-Apr-26 03:33N 60°12' E 027°50'1010.3
2016-Apr-26 02:33N 60°09' E 028°10'10 9.9
2016-Apr-26 01:33N 60°04' E 028°27'1010.1
2016-Apr-26 00:33N 60°03' E 028°47'2110.3
2016-Apr-25 22:31N 60°01' E 029°29'1010.1
2016-Apr-25 21:33N 59°58' E 029°47'1110.4
2016-Apr-25 20:28N 59°54' E 030°08'3 3.3
2016-Apr-25 19:33N 59°53' E 030°14'0 0.0
2016-Apr-25 18:33N 59°53' E 030°14'0 0.0
2016-Apr-25 17:32N 59°53' E 030°14'0 0.0
2016-Apr-25 16:29N 59°53' E 030°14'0 0.0
2016-Apr-25 15:29N 59°53' E 030°14'0 0.0
2016-Apr-25 14:32N 59°53' E 030°14'0 0.0
2016-Apr-25 13:29N 59°53' E 030°14'0 0.0
2016-Apr-25 12:32N 59°53' E 030°14'0 0.0
2016-Apr-25 11:32N 59°53' E 030°14'0 0.0
2016-Apr-25 10:32N 59°53' E 030°14'0 0.0
2016-Apr-25 09:32N 59°53' E 030°14'0 0.0
2016-Apr-25 08:32N 59°53' E 030°14'0 0.0
2016-Apr-25 07:32N 59°53' E 030°14'0 0.0
2016-Apr-25 06:29N 59°53' E 030°14'0 0.0
2016-Apr-25 05:32N 59°53' E 030°14'0 0.0
2016-Apr-25 04:32N 59°53' E 030°14'0 0.0
2016-Apr-25 03:29N 59°53' E 030°14'0 0.0
2016-Apr-25 02:29N 59°53' E 030°14'0 0.0
2016-Apr-25 01:32N 59°53' E 030°14'0 0.0
2016-Apr-25 00:31N 59°53' E 030°14'0 0.0
2016-Apr-24 23:28N 59°53' E 030°14'0 0.0
2016-Apr-24 22:31N 59°53' E 030°14'0 0.0
2016-Apr-24 21:31N 59°53' E 030°14'0 0.0
2016-Apr-24 20:31N 59°53' E 030°14'0 0.0
2016-Apr-24 19:31N 59°53' E 030°14'0 0.0
2016-Apr-24 18:31N 59°53' E 030°14'0 0.0
2016-Apr-24 17:31N 59°53' E 030°14'0 0.0
2016-Apr-24 16:25N 59°53' E 030°14'0 0.0
2016-Apr-24 15:28N 59°53' E 030°14'0 0.0
2016-Apr-24 14:31N 59°53' E 030°14'0 0.0
2016-Apr-24 13:28N 59°53' E 030°14'0 0.0
2016-Apr-24 12:31N 59°53' E 030°14'0 0.0
2016-Apr-24 11:31N 59°53' E 030°14'0 0.0
2016-Apr-24 10:31N 59°53' E 030°14'0 0.0
2016-Apr-24 09:31N 59°53' E 030°14'0 0.0
2016-Apr-24 08:28N 59°53' E 030°14'0 0.0
2016-Apr-24 07:31N 59°53' E 030°14'0 0.0
2016-Apr-24 06:28N 59°53' E 030°14'0 0.0
2016-Apr-24 05:31N 59°53' E 030°14'0 0.0
2016-Apr-24 04:28N 59°53' E 030°14'0 0.0
2016-Apr-24 03:28N 59°53' E 030°14'0 0.0
2016-Apr-24 02:28N 59°53' E 030°14'0 0.0
2016-Apr-24 01:31N 59°53' E 030°14'0 0.0
2016-Apr-24 00:31N 59°53' E 030°14'0 0.0
2016-Apr-23 23:31N 59°53' E 030°14'0 0.0
2016-Apr-23 22:31N 59°53' E 030°14'0 0.0
2016-Apr-23 21:28N 59°53' E 030°14'0 0.0
2016-Apr-23 20:28N 59°53' E 030°14'0 0.0
2016-Apr-23 19:31N 59°53' E 030°14'0 0.0
2016-Apr-23 18:31N 59°53' E 030°14'0 0.0
2016-Apr-23 17:31N 59°53' E 030°14'  

Dump ship's entire track history